Lewisville, Idaho
Current Conditions -  °F | °C
As of 1:53 AM on Monday 20 Oct 2014 (Local Time) from KIDA Reporting Station
Clear Clear  
Wind Chill: 33°   Ceiling: Unl
Heat Index: 37°   Visibility: 10mi
Dew Point: 30°   Wind: 5mph
Humidity: 76%   Direction: 340°NNW
Pressure: 30.06"   Gusts: NA
Location:  43.7°N, 112.01°W
Report Text: KIDA 200753Z AUTO 34004KT 10SM CLR 03/M01 A3006 RMK AO2 SLP165 T00281011
Loading
Personal Weather Stations






























Interactive Weather Map
Tropical Storm Tracking
New forecast layout! Learn more

10-Day Weather Forecast

Advertisements
Track Severe Weather on mobile